PWSweather.com
Personal Weather Stations
Station Observations
SIKIA
Sykia CorinthGR 20400

Sykia CorinthGR 20400

Lat: 38.06, Lon: 22.6653

Elevation: 20

Station Type: DAVIS Vantage PRO 2 Wireless

http://sykiaweather.alinos.eu

Latest ConditionsUpdated 4:09:46 AM GMT+02:02 Thursday, Mar 21, 2019
Currently Today's Max Today's Min Today's Average
Temperature 56.8°F13.8°C 60.6°F15.9°C 56.8°F13.8°C 59.0°F15.0°C
Dew Point 44.8°F7.1°C 48.9°F9.4°C 44.8°F7.1°C 46.7°F8.2°C
Winds 2.0 mph SW3.2 kmh SW 10.1 mph -16.3 kmh - - 2.8 mph 4.5 kmh
Wind Gusts 4.0 mph6.4 kmh 15.0 mph24.1 kmh - -
Humidity 64% 66% 58% 64%
Pressure 30.16 in1021.3 mb 30.19 in1022.4 mb 30.16 in1021.3 mb -
Hour Temp Dew Point Humidity Winds Wind Gusts Pressure Precip Precip Rate Daily Precip Total
04:09 AM 56.8°F13.8°C 44.8°F7.1°C 64% 2.0 mph SW3.2 kmh SW 4.0 mph6.4 kmh 30.16 in1021.3 mb 0.00 in0.0 mm 0.00 in0.0 mm 0.00 in0.0 mm
04:04 AM 57.4°F14.1°C 45.0°F7.2°C 63% 2.9 mph SW4.7 kmh SW 4.9 mph7.9 kmh 30.16 in1021.3 mb 0.00 in0.0 mm 0.00 in0.0 mm 0.00 in0.0 mm
03:59 AM 57.7°F14.3°C 45.3°F7.4°C 63% 2.9 mph SSW4.7 kmh SSW 4.9 mph7.9 kmh 30.16 in1021.3 mb 0.00 in0.0 mm 0.00 in0.0 mm 0.00 in0.0 mm
03:54 AM 58.3°F14.6°C 45.0°F7.2°C 61% 2.9 mph SSW4.7 kmh SSW 4.9 mph7.9 kmh 30.16 in1021.3 mb 0.00 in0.0 mm 0.00 in0.0 mm 0.00 in0.0 mm
03:49 AM 58.8°F14.9°C 45.0°F7.2°C 60% 2.9 mph SSW4.7 kmh SSW 6.0 mph9.7 kmh 30.16 in1021.3 mb 0.00 in0.0 mm 0.00 in0.0 mm 0.00 in0.0 mm
03:44 AM 59.4°F15.2°C 45.0°F7.2°C 59% 2.0 mph S3.2 kmh S 4.9 mph7.9 kmh 30.16 in1021.3 mb 0.00 in0.0 mm 0.00 in0.0 mm 0.00 in0.0 mm
03:39 AM 59.9°F15.5°C 45.5°F7.5°C 59% 0.9 mph SSW1.4 kmh SSW 4.0 mph6.4 kmh 30.16 in1021.3 mb 0.00 in0.0 mm 0.00 in0.0 mm 0.00 in0.0 mm
03:34 AM 60.4°F15.8°C 45.7°F7.6°C 58% 2.9 mph SSE4.7 kmh SSE 2.0 mph3.2 kmh 30.16 in1021.3 mb 0.00 in0.0 mm 0.00 in0.0 mm 0.00 in0.0 mm
03:29 AM 60.6°F15.9°C 45.7°F7.6°C 58% 4.0 mph ESE6.4 kmh ESE 8.9 mph14.3 kmh 30.16 in1021.3 mb 0.00 in0.0 mm 0.00 in0.0 mm 0.00 in0.0 mm
03:24 AM 60.6°F15.9°C 45.7°F7.6°C 58% 6.9 mph E11.1 kmh E 15.0 mph24.1 kmh 30.16 in1021.3 mb 0.00 in0.0 mm 0.00 in0.0 mm 0.00 in0.0 mm
03:19 AM 60.4°F15.8°C 46.4°F8.0°C 60% 10.1 mph E16.3 kmh E 13.0 mph20.9 kmh 30.17 in1021.7 mb 0.00 in0.0 mm 0.00 in0.0 mm 0.00 in0.0 mm
03:14 AM 60.4°F15.8°C 47.3°F8.5°C 62% 8.9 mph ENE14.3 kmh ENE 14.1 mph22.7 kmh 30.17 in1021.7 mb 0.00 in0.0 mm 0.00 in0.0 mm 0.00 in0.0 mm
03:09 AM 59.7°F15.4°C 46.8°F8.2°C 62% 4.0 mph E6.4 kmh E 11.0 mph17.7 kmh 30.17 in1021.7 mb 0.00 in0.0 mm 0.00 in0.0 mm 0.00 in0.0 mm
03:04 AM 58.3°F14.6°C 46.6°F8.1°C 65% 2.0 mph ENE3.2 kmh ENE 11.0 mph17.7 kmh 30.17 in1021.7 mb 0.00 in0.0 mm 0.00 in0.0 mm 0.00 in0.0 mm
02:59 AM 58.3°F14.6°C 46.6°F8.1°C 65% 2.9 mph SW4.7 kmh SW 4.0 mph6.4 kmh 30.17 in1021.7 mb 0.00 in0.0 mm 0.00 in0.0 mm 0.00 in0.0 mm
02:54 AM 58.1°F14.5°C 46.4°F8.0°C 65% 2.0 mph SSW3.2 kmh SSW 5.0 mph8.0 kmh 30.17 in1021.7 mb 0.00 in0.0 mm 0.00 in0.0 mm 0.00 in0.0 mm
02:49 AM 58.5°F14.7°C 46.8°F8.2°C 65% 2.0 mph S3.2 kmh S 4.0 mph6.4 kmh 30.18 in1022.0 mb 0.00 in0.0 mm 0.00 in0.0 mm 0.00 in0.0 mm
02:44 AM 58.8°F14.9°C 46.6°F8.1°C 64% 2.0 mph S3.2 kmh S 4.0 mph6.4 kmh 30.18 in1022.0 mb 0.00 in0.0 mm 0.00 in0.0 mm 0.00 in0.0 mm
02:39 AM 59.5°F15.3°C 47.3°F8.5°C 64% 0.9 mph SE1.4 kmh SE 4.0 mph6.4 kmh 30.18 in1022.0 mb 0.00 in0.0 mm 0.00 in0.0 mm 0.00 in0.0 mm
02:34 AM 60.1°F15.6°C 48.2°F9.0°C 65% 2.0 mph E3.2 kmh E 2.0 mph3.2 kmh 30.18 in1022.0 mb 0.00 in0.0 mm 0.00 in0.0 mm 0.00 in0.0 mm
02:29 AM 60.3°F15.7°C 48.9°F9.4°C 66% 4.0 mph NE6.4 kmh NE 8.1 mph13.0 kmh 30.18 in1022.0 mb 0.00 in0.0 mm 0.00 in0.0 mm 0.00 in0.0 mm
02:24 AM 60.3°F15.7°C 48.0°F8.9°C 64% 4.0 mph ENE6.4 kmh ENE 8.1 mph13.0 kmh 30.18 in1022.0 mb 0.00 in0.0 mm 0.00 in0.0 mm 0.00 in0.0 mm
02:19 AM 60.3°F15.7°C 48.4°F9.1°C 65% 4.0 mph NE6.4 kmh NE 6.9 mph11.1 kmh 30.18 in1022.0 mb 0.00 in0.0 mm 0.00 in0.0 mm 0.00 in0.0 mm
02:14 AM 60.1°F15.6°C 47.8°F8.8°C 64% 4.9 mph NNE7.9 kmh NNE 8.1 mph13.0 kmh 30.18 in1022.0 mb 0.00 in0.0 mm 0.00 in0.0 mm 0.00 in0.0 mm
02:09 AM 59.9°F15.5°C 48.0°F8.9°C 65% 2.9 mph NNE4.7 kmh NNE 9.0 mph14.5 kmh 30.19 in1022.4 mb 0.00 in0.0 mm 0.00 in0.0 mm 0.00 in0.0 mm
02:04 AM 59.5°F15.3°C 47.3°F8.5°C 64% 0.9 mph NE1.4 kmh NE 4.9 mph7.9 kmh 30.19 in1022.4 mb 0.00 in0.0 mm 0.00 in0.0 mm 0.00 in0.0 mm
01:59 AM 59.7°F15.4°C 47.1°F8.4°C 63% 0.9 mph S1.4 kmh S 4.0 mph6.4 kmh 30.19 in1022.4 mb 0.00 in0.0 mm 0.00 in0.0 mm 0.00 in0.0 mm
01:54 AM 60.1°F15.6°C 47.5°F8.6°C 63% 2.0 mph S3.2 kmh S 4.0 mph6.4 kmh 30.19 in1022.4 mb 0.00 in0.0 mm 0.00 in0.0 mm 0.00 in0.0 mm
01:49 AM 60.3°F15.7°C 47.7°F8.7°C 63% 4.0 mph S6.4 kmh S 11.0 mph17.7 kmh 30.19 in1022.4 mb 0.00 in0.0 mm 0.00 in0.0 mm 0.00 in0.0 mm
01:44 AM 60.6°F15.9°C 48.4°F9.1°C 64% 2.9 mph ESE4.7 kmh ESE 7.0 mph11.3 kmh 30.19 in1022.4 mb 0.00 in0.0 mm 0.00 in0.0 mm 0.00 in0.0 mm
01:39 AM 60.6°F15.9°C 47.5°F8.6°C 62% 2.9 mph NE4.7 kmh NE 4.9 mph7.9 kmh 30.19 in1022.4 mb 0.00 in0.0 mm 0.00 in0.0 mm 0.00 in0.0 mm
01:34 AM 60.4°F15.8°C 47.3°F8.5°C 62% 4.0 mph NE6.4 kmh NE 4.9 mph7.9 kmh 30.19 in1022.4 mb 0.00 in0.0 mm 0.00 in0.0 mm 0.00 in0.0 mm
01:29 AM 60.1°F15.6°C 46.9°F8.3°C 62% 4.0 mph NE6.4 kmh NE 8.9 mph14.3 kmh 30.19 in1022.4 mb 0.00 in0.0 mm 0.00 in0.0 mm 0.00 in0.0 mm
01:24 AM 59.2°F15.1°C 46.9°F8.3°C 64% 2.9 mph NNE4.7 kmh NNE 7.0 mph11.3 kmh 30.19 in1022.4 mb 0.00 in0.0 mm 0.00 in0.0 mm 0.00 in0.0 mm
01:19 AM 58.6°F14.8°C 47.3°F8.5°C 66% 2.0 mph NNE3.2 kmh NNE 4.0 mph6.4 kmh 30.19 in1022.4 mb 0.00 in0.0 mm 0.00 in0.0 mm 0.00 in0.0 mm
01:14 AM 58.6°F14.8°C 47.3°F8.5°C 66% 0.9 mph SSW1.4 kmh SSW 2.9 mph4.7 kmh 30.18 in1022.0 mb 0.00 in0.0 mm 0.00 in0.0 mm 0.00 in0.0 mm
01:09 AM 58.6°F14.8°C 46.9°F8.3°C 65% 0.9 mph SSW1.4 kmh SSW 2.0 mph3.2 kmh 30.18 in1022.0 mb 0.00 in0.0 mm 0.00 in0.0 mm 0.00 in0.0 mm
01:04 AM 58.6°F14.8°C 46.9°F8.3°C 65% 0.9 mph SSW1.4 kmh SSW 2.9 mph4.7 kmh 30.19 in1022.4 mb 0.00 in0.0 mm 0.00 in0.0 mm 0.00 in0.0 mm
12:59 AM 58.6°F14.8°C 46.9°F8.3°C 65% 2.0 mph SSW3.2 kmh SSW 2.9 mph4.7 kmh 30.18 in1022.0 mb 0.00 in0.0 mm 0.00 in0.0 mm 0.00 in0.0 mm
12:54 AM 58.6°F14.8°C 46.9°F8.3°C 65% 2.9 mph SSW4.7 kmh SSW 4.9 mph7.9 kmh 30.19 in1022.4 mb 0.00 in0.0 mm 0.00 in0.0 mm 0.00 in0.0 mm
12:49 AM 58.3°F14.6°C 46.6°F8.1°C 65% 2.9 mph SSW4.7 kmh SSW 6.0 mph9.7 kmh 30.18 in1022.0 mb 0.00 in0.0 mm 0.00 in0.0 mm 0.00 in0.0 mm
12:44 AM 58.3°F14.6°C 46.6°F8.1°C 65% 2.0 mph SSW3.2 kmh SSW 5.0 mph8.0 kmh 30.19 in1022.4 mb 0.00 in0.0 mm 0.00 in0.0 mm 0.00 in0.0 mm
12:39 AM 57.9°F14.4°C 46.2°F7.9°C 65% 2.0 mph SSW3.2 kmh SSW 2.9 mph4.7 kmh 30.18 in1022.0 mb 0.00 in0.0 mm 0.00 in0.0 mm 0.00 in0.0 mm
12:34 AM 57.7°F14.3°C 46.4°F8.0°C 66% 2.0 mph SSW3.2 kmh SSW 5.0 mph8.0 kmh 30.19 in1022.4 mb 0.00 in0.0 mm 0.00 in0.0 mm 0.00 in0.0 mm
12:29 AM 57.4°F14.1°C 46.0°F7.8°C 66% 0.9 mph SW1.4 kmh SW 4.0 mph6.4 kmh 30.19 in1022.4 mb 0.00 in0.0 mm 0.00 in0.0 mm 0.00 in0.0 mm
12:24 AM 57.4°F14.1°C 46.0°F7.8°C 66% 0.9 mph SW1.4 kmh SW 2.9 mph4.7 kmh 30.19 in1022.4 mb 0.00 in0.0 mm 0.00 in0.0 mm 0.00 in0.0 mm
12:19 AM 57.4°F14.1°C 46.0°F7.8°C 66% 2.0 mph SW3.2 kmh SW 4.0 mph6.4 kmh 30.19 in1022.4 mb 0.00 in0.0 mm 0.00 in0.0 mm 0.00 in0.0 mm
12:14 AM 57.4°F14.1°C 46.0°F7.8°C 66% 2.0 mph SSW3.2 kmh SSW 4.0 mph6.4 kmh 30.19 in1022.4 mb 0.00 in0.0 mm 0.00 in0.0 mm 0.00 in0.0 mm
12:09 AM 57.4°F14.1°C 46.0°F7.8°C 66% 2.0 mph SW3.2 kmh SW 2.9 mph4.7 kmh 30.19 in1022.4 mb 0.00 in0.0 mm 0.00 in0.0 mm 0.00 in0.0 mm
12:04 AM 57.6°F14.2°C 45.9°F7.7°C 65% 2.0 mph SW3.2 kmh SW 4.9 mph7.9 kmh 30.19 in1022.4 mb 0.00 in0.0 mm 0.00 in0.0 mm 0.00 in0.0 mm